Time;durP1;ratioP1;P1;durP2;ratioP2;P2;SDS_P1;SDS_P2;PMS_P1;PMS_P2;Temp;Humidity;BMP_temperature;BMP_pressure;BME280_temperature;BME280_humidity;BME280_pressure;Samples;Min_cycle;Max_cycle;Signal;HPM_P1;HPM_P2
2023/07/16 00:01:53;;;;;;;1.13;1.00;;;25.60;95.20;;;;;;4995408;28;20587;-94
2023/07/16 00:04:19;;;;;;;1.33;0.90;;;25.60;95.20;;;;;;4995169;28;20537;-95
2023/07/16 00:06:47;;;;;;;1.37;1.00;;;25.60;95.20;;;;;;4994324;28;20513;-94
2023/07/16 00:09:14;;;;;;;1.30;1.00;;;25.60;95.20;;;;;;4994262;28;20534;-95
2023/07/16 00:11:41;;;;;;;1.10;0.90;;;25.60;95.20;;;;;;4994138;28;20483;-94
2023/07/16 00:14:08;;;;;;;1.10;0.90;;;25.60;95.20;;;;;;4993875;28;20543;-94
2023/07/16 00:16:36;;;;;;;1.10;1.00;;;25.70;95.20;;;;;;4994429;28;20471;-94
2023/07/16 00:22:25;;;;;;;1.10;1.00;;;25.60;95.20;;;;;;4993978;28;20439;-94
2023/07/16 00:24:52;;;;;;;1.00;0.80;;;25.50;95.20;;;;;;4996422;28;20448;-94
2023/07/16 00:27:19;;;;;;;1.20;1.00;;;25.50;95.20;;;;;;4997689;28;20473;-94
2023/07/16 00:29:46;;;;;;;1.10;0.93;;;25.50;95.20;;;;;;4997907;28;20533;-94
2023/07/16 00:32:14;;;;;;;1.20;1.10;;;25.50;95.10;;;;;;4997726;28;20562;-94
2023/07/16 00:34:41;;;;;;;1.27;1.03;;;25.50;95.10;;;;;;4997455;28;21054;-94
2023/07/16 00:37:08;;;;;;;1.00;0.83;;;25.60;95.20;;;;;;4997801;28;20482;-94
2023/07/16 00:39:35;;;;;;;1.20;1.00;;;25.50;95.10;;;;;;4997574;28;20875;-94
2023/07/16 00:42:02;;;;;;;1.97;1.10;;;25.50;95.20;;;;;;4997357;28;20441;-94
2023/07/16 00:44:29;;;;;;;1.30;1.20;;;25.60;95.20;;;;;;4997468;28;20453;-94
2023/07/16 00:46:56;;;;;;;1.17;1.00;;;25.50;95.10;;;;;;4997356;28;20571;-94
2023/07/16 00:49:24;;;;;;;1.50;1.00;;;25.50;95.20;;;;;;4997677;28;20539;-94
2023/07/16 00:51:53;;;;;;;1.13;1.03;;;25.50;95.20;;;;;;4997529;28;20554;-94
2023/07/16 00:54:21;;;;;;;1.10;1.00;;;25.50;95.10;;;;;;4997770;28;20473;-94
2023/07/16 00:56:48;;;;;;;1.10;0.90;;;25.50;95.00;;;;;;4998208;28;20455;-94
2023/07/16 00:59:14;;;;;;;1.13;1.00;;;25.50;95.10;;;;;;4997432;28;20879;-94
2023/07/16 01:01:41;;;;;;;1.20;1.10;;;25.60;95.20;;;;;;4997589;28;20453;-94
2023/07/16 01:04:08;;;;;;;1.70;1.00;;;25.50;95.10;;;;;;4997075;28;20453;-94
2023/07/16 01:06:40;;;;;;;1.20;1.10;;;25.50;95.10;;;;;;4997285;28;20446;-94
2023/07/16 01:09:11;;;;;;;1.10;1.00;;;25.50;95.20;;;;;;4996832;28;20506;-95
2023/07/16 01:11:40;;;;;;;1.20;0.90;;;25.50;95.20;;;;;;4996918;28;20490;-94
2023/07/16 01:14:08;;;;;;;1.10;1.00;;;25.60;95.30;;;;;;4996756;28;20449;-95
2023/07/16 01:16:35;;;;;;;1.50;0.93;;;25.50;95.30;;;;;;4997288;28;20456;-95
2023/07/16 01:19:03;;;;;;;1.30;1.10;;;25.50;95.40;;;;;;4996779;28;20540;-94
2023/07/16 01:21:35;;;;;;;1.50;0.90;;;25.50;95.30;;;;;;4997381;28;20446;-95
2023/07/16 01:24:32;;;;;;;1.50;1.00;;;25.60;95.30;;;;;;4996689;28;20548;-94
2023/07/16 01:27:23;;;;;;;1.10;0.90;;;25.50;95.30;;;;;;4982832;28;20539;-94
2023/07/16 01:29:55;;;;;;;1.30;0.90;;;25.50;95.40;;;;;;4997812;28;20449;-93
2023/07/16 01:32:22;;;;;;;1.20;1.07;;;25.50;95.20;;;;;;4997192;28;20447;-94
2023/07/16 01:34:50;;;;;;;1.20;1.00;;;25.50;95.20;;;;;;4995831;28;20517;-94
2023/07/16 01:37:17;;;;;;;1.30;1.13;;;25.50;95.30;;;;;;4995800;28;20554;-93
2023/07/16 01:39:44;;;;;;;1.20;1.10;;;25.50;95.20;;;;;;4996498;28;20533;-94
2023/07/16 01:42:12;;;;;;;1.13;0.93;;;25.50;95.20;;;;;;4997553;28;20445;-94
2023/07/16 01:44:39;;;;;;;1.23;1.00;;;25.50;95.20;;;;;;4997078;28;20531;-94
2023/07/16 01:47:11;;;;;;;1.10;0.90;;;25.50;95.20;;;;;;4996283;28;20534;-94
2023/07/16 01:49:38;;;;;;;1.00;0.87;;;25.50;95.20;;;;;;4997354;28;20697;-94
2023/07/16 01:52:06;;;;;;;1.20;0.97;;;25.50;95.00;;;;;;4996437;28;21010;-94
2023/07/16 01:54:33;;;;;;;1.00;0.80;;;25.50;95.10;;;;;;4996315;28;20483;-94
2023/07/16 01:57:00;;;;;;;1.70;1.10;;;25.50;95.20;;;;;;4996361;28;20473;-94
2023/07/16 01:59:27;;;;;;;1.10;1.00;;;25.50;95.00;;;;;;4996010;28;20453;-94
2023/07/16 02:01:53;;;;;;;1.10;0.90;;;25.50;95.00;;;;;;4995775;28;20456;-94
2023/07/16 02:04:22;;;;;;;1.30;1.00;;;25.50;95.00;;;;;;4997008;28;20537;-95
2023/07/16 02:06:49;;;;;;;1.20;1.00;;;25.50;95.00;;;;;;4996274;28;20452;-95
2023/07/16 02:09:16;;;;;;;1.37;0.93;;;25.50;95.00;;;;;;4996049;28;20519;-94
2023/07/16 02:11:43;;;;;;;1.27;1.10;;;25.50;95.00;;;;;;4995693;28;20483;-94
2023/07/16 02:14:10;;;;;;;1.10;0.90;;;25.50;95.00;;;;;;4995593;28;20551;-95
2023/07/16 02:16:37;;;;;;;1.10;1.00;;;25.50;95.00;;;;;;4995655;28;20446;-94
2023/07/16 02:19:04;;;;;;;1.10;0.90;;;25.50;95.00;;;;;;4996032;28;20440;-94
2023/07/16 02:21:32;;;;;;;1.20;1.10;;;25.50;95.00;;;;;;4995625;28;20484;-95
2023/07/16 02:23:59;;;;;;;1.00;0.87;;;25.50;95.00;;;;;;4995252;28;20477;-94
2023/07/16 02:26:26;;;;;;;1.17;0.90;;;25.50;94.90;;;;;;4995596;28;20907;-94
2023/07/16 02:28:53;;;;;;;1.30;0.90;;;25.50;95.00;;;;;;4995661;28;20484;-94
2023/07/16 02:31:20;;;;;;;1.00;0.77;;;25.50;95.00;;;;;;4996079;28;20471;-94
2023/07/16 02:33:47;;;;;;;1.20;1.00;;;25.40;95.00;;;;;;4995285;28;20786;-94
2023/07/16 02:36:13;;;;;;;1.00;0.80;;;25.60;95.00;;;;;;4995650;28;20430;-94
2023/07/16 02:38:42;;;;;;;1.10;0.90;;;25.40;94.90;;;;;;4996158;28;20483;-93
2023/07/16 02:41:09;;;;;;;1.20;1.00;;;25.40;94.90;;;;;;4995301;28;20549;-94
2023/07/16 02:46:57;;;;;;;1.20;1.10;;;25.40;94.90;;;;;;4994793;28;20407;-94
2023/07/16 02:49:24;;;;;;;1.10;0.87;;;25.30;94.90;;;;;;4995519;28;20568;-94
2023/07/16 02:51:51;;;;;;;1.40;1.20;;;25.40;95.00;;;;;;4995225;28;20448;-94
2023/07/16 02:54:20;;;;;;;1.77;1.33;;;25.40;95.00;;;;;;4994731;28;20482;-95
2023/07/16 02:56:47;;;;;;;1.30;1.20;;;25.40;95.00;;;;;;4995178;28;20441;-94
2023/07/16 02:59:14;;;;;;;1.13;0.90;;;25.40;94.90;;;;;;4995068;28;20452;-93
2023/07/16 03:01:41;;;;;;;1.00;0.90;;;25.40;95.00;;;;;;4994991;28;20450;-93
2023/07/16 03:04:08;;;;;;;1.20;0.93;;;25.40;95.00;;;;;;4995025;28;20540;-94
2023/07/16 03:06:35;;;;;;;1.10;0.90;;;25.40;94.90;;;;;;4994788;28;20535;-94
2023/07/16 03:09:02;;;;;;;1.40;1.30;;;25.40;95.10;;;;;;4995109;28;20485;-95
2023/07/16 03:11:30;;;;;;;1.57;1.00;;;25.40;95.00;;;;;;4994829;28;20478;-94
2023/07/16 03:13:57;;;;;;;1.03;0.87;;;25.40;94.90;;;;;;4995026;28;20534;-94
2023/07/16 03:16:24;;;;;;;1.20;1.10;;;25.40;95.10;;;;;;4994733;28;20540;-94
2023/07/16 03:18:51;;;;;;;1.00;0.90;;;25.40;94.90;;;;;;4995101;28;20538;-94
2023/07/16 03:21:18;;;;;;;1.20;0.90;;;25.40;94.90;;;;;;4994766;28;20941;-94
2023/07/16 03:23:45;;;;;;;1.20;1.10;;;25.40;94.90;;;;;;4994709;28;20529;-94
2023/07/16 03:26:12;;;;;;;1.13;0.80;;;25.50;94.90;;;;;;4994793;28;20495;-94
2023/07/16 03:28:40;;;;;;;1.10;1.00;;;25.40;94.90;;;;;;4994561;28;20491;-93
2023/07/16 03:31:07;;;;;;;1.30;1.10;;;25.40;94.90;;;;;;4995496;28;20920;-94
2023/07/16 03:33:34;;;;;;;1.23;1.10;;;25.40;94.90;;;;;;4994199;28;20535;-94
2023/07/16 03:36:01;;;;;;;2.20;1.20;;;25.40;95.10;;;;;;4994624;28;20533;-94
2023/07/16 03:38:28;;;;;;;1.10;0.90;;;25.40;94.90;;;;;;4994580;28;20472;-93
2023/07/16 03:40:55;;;;;;;1.20;0.90;;;25.40;94.90;;;;;;4994619;28;20488;-93
2023/07/16 03:43:22;;;;;;;1.13;1.00;;;25.40;94.90;;;;;;4994408;28;20495;-93
2023/07/16 03:45:51;;;;;;;2.07;0.90;;;25.40;94.90;;;;;;4994644;28;20540;-93
2023/07/16 03:48:17;;;;;;;1.20;1.10;;;25.40;94.90;;;;;;4994421;28;20496;-93
2023/07/16 03:50:44;;;;;;;1.13;1.03;;;25.40;94.80;;;;;;4994444;28;20480;-93
2023/07/16 03:53:11;;;;;;;1.10;0.80;;;25.40;94.80;;;;;;4995081;28;20473;-92
2023/07/16 03:55:38;;;;;;;1.30;1.10;;;25.40;94.80;;;;;;4977335;28;20448;-93
2023/07/16 03:58:05;;;;;;;1.10;0.90;;;25.40;94.80;;;;;;4994103;28;20932;-93
2023/07/16 04:00:32;;;;;;;1.30;1.10;;;25.40;95.30;;;;;;4997659;28;20449;-93
2023/07/16 04:03:01;;;;;;;1.10;0.90;;;25.40;95.00;;;;;;4999339;28;20452;-93
2023/07/16 04:05:28;;;;;;;1.27;1.07;;;25.40;94.80;;;;;;4998424;28;20499;-93
2023/07/16 04:07:55;;;;;;;1.30;0.90;;;25.40;94.90;;;;;;4998025;28;20446;-93
2023/07/16 04:10:22;;;;;;;1.50;0.90;;;25.40;94.90;;;;;;4998454;28;20467;-93
2023/07/16 04:12:48;;;;;;;1.33;0.80;;;25.40;94.90;;;;;;4998179;28;20458;-93
2023/07/16 04:15:15;;;;;;;1.03;0.83;;;25.40;94.90;;;;;;4998172;28;20539;-93
2023/07/16 04:17:42;;;;;;;1.20;1.10;;;25.40;95.00;;;;;;4998608;28;20452;-92
2023/07/16 04:20:11;;;;;;;1.20;1.00;;;25.40;94.90;;;;;;4998223;28;20947;-93
2023/07/16 04:22:38;;;;;;;1.10;0.90;;;25.40;94.80;;;;;;4997723;28;20457;-93
2023/07/16 04:25:05;;;;;;;1.20;0.87;;;25.40;94.80;;;;;;4998146;28;20833;-93
2023/07/16 04:27:32;;;;;;;1.30;1.13;;;25.40;94.80;;;;;;4997519;28;20448;-93
2023/07/16 04:29:59;;;;;;;1.20;1.07;;;25.40;94.70;;;;;;4997568;28;20510;-93
2023/07/16 04:32:26;;;;;;;1.30;1.20;;;25.40;94.70;;;;;;4998041;28;20450;-93
2023/07/16 04:34:53;;;;;;;1.17;0.93;;;25.40;94.60;;;;;;4997570;28;20515;-93
2023/07/16 04:37:21;;;;;;;1.97;1.00;;;25.40;94.70;;;;;;4997686;28;20534;-93
2023/07/16 04:39:48;;;;;;;1.30;1.00;;;25.40;94.60;;;;;;4997529;28;20524;-93
2023/07/16 04:42:16;;;;;;;1.13;1.00;;;25.40;94.50;;;;;;4997793;28;20440;-94
2023/07/16 04:44:43;;;;;;;1.20;1.00;;;25.40;94.60;;;;;;4997582;28;20479;-93
2023/07/16 04:47:10;;;;;;;2.07;0.90;;;25.40;94.60;;;;;;4997566;28;20452;-93
2023/07/16 04:49:37;;;;;;;1.30;1.10;;;25.40;94.50;;;;;;4997703;28;20486;-93
2023/07/16 04:52:04;;;;;;;1.20;1.00;;;25.40;94.50;;;;;;4997193;28;20841;-93
2023/07/16 04:57:56;;;;;;;1.13;0.90;;;25.40;94.70;;;;;;4997358;28;20936;-93
2023/07/16 05:00:23;;;;;;;1.57;1.00;;;25.40;94.60;;;;;;4998284;28;20535;-93
2023/07/16 05:02:50;;;;;;;1.20;1.07;;;25.40;94.50;;;;;;4997098;28;20480;-93
2023/07/16 05:05:17;;;;;;;1.10;0.90;;;25.40;94.50;;;;;;4980122;28;20924;-93
2023/07/16 05:07:44;;;;;;;1.13;0.90;;;25.40;94.40;;;;;;4996941;28;20485;-93
2023/07/16 05:10:11;;;;;;;1.20;1.10;;;25.40;94.50;;;;;;4996920;28;20484;-93
2023/07/16 05:12:38;;;;;;;1.20;1.10;;;25.40;94.40;;;;;;4996914;28;20484;-93
2023/07/16 05:15:08;;;;;;;1.10;0.90;;;25.40;94.40;;;;;;4997197;28;20899;-93
2023/07/16 05:17:35;;;;;;;1.10;1.00;;;25.40;94.40;;;;;;4997412;28;20445;-93
2023/07/16 05:20:02;;;;;;;1.20;1.00;;;25.40;94.40;;;;;;4996930;28;20994;-93
2023/07/16 05:22:29;;;;;;;2.13;1.00;;;25.40;94.40;;;;;;4996927;28;20465;-93
2023/07/16 05:24:56;;;;;;;1.20;1.10;;;25.40;94.40;;;;;;4997597;28;20456;-93
2023/07/16 05:27:23;;;;;;;1.20;1.10;;;25.40;94.40;;;;;;4996745;28;20487;-94
2023/07/16 05:29:50;;;;;;;1.13;0.97;;;25.40;94.40;;;;;;4996684;28;21071;-93
2023/07/16 05:32:18;;;;;;;1.13;0.90;;;25.40;94.30;;;;;;4996529;28;20511;-93
2023/07/16 05:34:45;;;;;;;1.83;1.17;;;25.40;94.30;;;;;;4996682;28;21116;-93
2023/07/16 05:37:12;;;;;;;1.30;1.00;;;25.40;94.30;;;;;;4997275;28;20455;-93
2023/07/16 05:39:39;;;;;;;1.53;1.30;;;25.40;94.30;;;;;;4996971;28;20458;-92
2023/07/16 05:42:07;;;;;;;1.40;1.20;;;25.40;94.40;;;;;;4996776;28;20480;-93
2023/07/16 05:44:34;;;;;;;1.10;1.00;;;25.40;94.30;;;;;;4996656;28;20539;-93
2023/07/16 05:47:01;;;;;;;1.20;1.00;;;25.40;94.20;;;;;;4996352;28;20456;-92
2023/07/16 05:49:29;;;;;;;1.10;0.90;;;25.40;94.30;;;;;;4996974;28;20479;-93
2023/07/16 05:51:56;;;;;;;1.20;1.00;;;25.40;94.20;;;;;;4996630;28;20539;-93
2023/07/16 05:54:23;;;;;;;1.37;1.03;;;25.40;94.20;;;;;;4997103;28;20446;-93
2023/07/16 05:56:50;;;;;;;1.40;0.93;;;25.40;94.20;;;;;;4997125;28;20977;-93
2023/07/16 05:59:17;;;;;;;1.10;1.00;;;25.40;94.20;;;;;;4996421;28;20966;-92
2023/07/16 06:01:44;;;;;;;1.33;1.23;;;25.40;94.20;;;;;;4996115;28;20523;-94
2023/07/16 06:04:11;;;;;;;1.30;1.17;;;25.40;94.30;;;;;;4996132;28;20569;-93
2023/07/16 06:06:39;;;;;;;1.30;1.00;;;25.40;94.30;;;;;;4997140;28;20478;-93
2023/07/16 06:09:06;;;;;;;1.67;1.20;;;25.40;94.20;;;;;;4995810;28;20481;-93
2023/07/16 06:11:33;;;;;;;1.30;1.00;;;25.40;94.20;;;;;;4995687;28;20453;-93
2023/07/16 06:14:00;;;;;;;1.30;1.20;;;25.40;94.20;;;;;;4996002;28;20481;-93
2023/07/16 06:16:27;;;;;;;1.07;0.90;;;25.40;94.10;;;;;;4996019;28;20445;-92
2023/07/16 06:18:54;;;;;;;1.47;1.27;;;25.40;94.10;;;;;;4995914;28;20479;-93
2023/07/16 06:21:21;;;;;;;1.10;0.90;;;25.40;94.10;;;;;;4995183;28;20445;-94
2023/07/16 06:23:50;;;;;;;1.30;1.03;;;25.40;94.00;;;;;;4995400;28;20540;-93
2023/07/16 06:26:16;;;;;;;1.30;1.10;;;25.40;94.10;;;;;;4995948;28;20451;-93
2023/07/16 06:28:43;;;;;;;1.10;1.00;;;25.40;94.20;;;;;;4996421;28;20563;-93
2023/07/16 06:31:10;;;;;;;1.80;1.30;;;25.40;94.20;;;;;;4995878;28;20484;-92
2023/07/16 06:33:37;;;;;;;3.73;1.47;;;25.40;94.20;;;;;;4995187;28;20443;-93
2023/07/16 06:36:04;;;;;;;1.33;1.23;;;25.40;94.20;;;;;;4995604;28;20830;-93
2023/07/16 06:38:31;;;;;;;1.40;1.23;;;25.40;94.20;;;;;;4995389;28;20463;-94
2023/07/16 06:41:00;;;;;;;1.30;1.20;;;25.40;94.10;;;;;;4995676;28;20869;-93
2023/07/16 06:43:26;;;;;;;1.40;1.20;;;25.50;94.10;;;;;;4995387;28;20470;-93
2023/07/16 06:45:54;;;;;;;1.47;1.37;;;25.60;93.90;;;;;;4995059;28;20524;-93
2023/07/16 06:48:28;;;;;;;1.20;1.10;;;25.50;94.00;;;;;;4995410;28;20456;-93
2023/07/16 06:50:55;;;;;;;1.10;1.00;;;25.50;93.90;;;;;;4995774;28;20443;-93
2023/07/16 06:53:25;;;;;;;1.80;1.70;;;25.50;94.10;;;;;;4995131;28;20817;-93
2023/07/16 06:55:52;;;;;;;2.73;1.40;;;25.50;93.90;;;;;;4995490;28;20530;-93
2023/07/16 06:58:20;;;;;;;1.43;1.33;;;25.50;93.80;;;;;;4995413;28;20452;-93
2023/07/16 07:00:47;;;;;;;1.50;1.40;;;25.50;93.70;;;;;;4995349;28;20544;-93
2023/07/16 07:03:14;;;;;;;3.73;1.93;;;25.50;93.80;;;;;;4995779;28;20912;-93
2023/07/16 07:05:42;;;;;;;1.33;1.23;;;25.50;93.80;;;;;;4995135;28;20537;-94
2023/07/16 07:08:15;;;;;;;1.50;1.40;;;25.50;93.70;;;;;;4995011;28;20534;-93
2023/07/16 07:10:42;;;;;;;2.63;1.47;;;25.50;93.60;;;;;;4995043;28;20489;-93
2023/07/16 07:13:12;;;;;;;1.80;1.70;;;25.50;93.70;;;;;;4995259;28;20983;-93
2023/07/16 07:15:42;;;;;;;1.43;1.20;;;25.40;93.60;;;;;;4995210;28;20459;-93
2023/07/16 07:18:10;;;;;;;1.03;0.87;;;25.50;93.70;;;;;;4995064;28;20459;-93
2023/07/16 07:20:45;;;;;;;3.00;1.57;;;25.60;93.80;;;;;;4994243;28;20460;-93
2023/07/16 07:23:12;;;;;;;2.73;1.80;;;25.60;93.80;;;;;;4994409;28;20994;-93
2023/07/16 07:25:41;;;;;;;4.13;2.40;;;25.50;93.70;;;;;;4995873;28;20473;-95
2023/07/16 07:28:10;;;;;;;5.17;2.47;;;25.50;92.60;;;;;;4995036;28;20448;-94
2023/07/16 07:30:45;;;;;;;2.87;2.50;;;25.50;92.60;;;;;;4994334;28;20479;-95
2023/07/16 07:33:12;;;;;;;3.50;2.90;;;25.40;92.00;;;;;;4994248;28;20455;-94
2023/07/16 07:35:43;;;;;;;7.10;3.63;;;25.40;91.90;;;;;;4994078;28;20482;-94
2023/07/16 07:38:12;;;;;;;4.53;2.47;;;25.40;91.70;;;;;;4995419;28;20495;-92
2023/07/16 07:40:50;;;;;;;4.77;3.37;;;25.40;91.90;;;;;;4994476;28;20536;-93
2023/07/16 07:43:24;;;;;;;3.63;3.30;;;25.40;91.70;;;;;;4995097;28;21010;-94
2023/07/16 07:45:54;;;;;;;2.97;2.73;;;25.40;91.70;;;;;;4994455;28;20495;-93
2023/07/16 07:48:26;;;;;;;3.77;3.27;;;25.30;91.50;;;;;;4994204;28;20448;-93
2023/07/16 07:50:53;;;;;;;5.60;3.50;;;25.40;91.40;;;;;;4994513;28;20560;-93
2023/07/16 07:53:20;;;;;;;6.53;3.50;;;25.40;91.40;;;;;;4994673;28;20471;-92
2023/07/16 08:01:46;;;;;;;4.30;3.43;;;25.40;91.30;;;;;;5071686;23;20477;-90
2023/07/16 08:04:13;;;;;;;4.80;3.60;;;25.40;91.10;;;;;;4979074;28;20438;-94
2023/07/16 08:06:43;;;;;;;3.47;3.17;;;25.40;91.50;;;;;;4977900;28;20531;-95
2023/07/16 08:09:11;;;;;;;4.83;3.37;;;25.40;91.00;;;;;;4977740;28;20913;-96
2023/07/16 08:11:38;;;;;;;3.93;3.37;;;25.40;91.20;;;;;;4978147;28;20454;-95
2023/07/16 08:14:05;;;;;;;5.17;2.80;;;25.50;91.80;;;;;;4976450;28;20476;-95
2023/07/16 08:16:35;;;;;;;7.13;3.77;;;25.50;92.10;;;;;;4978396;28;20460;-95
2023/07/16 08:19:04;;;;;;;5.07;3.47;;;25.40;92.30;;;;;;4977507;28;20768;-95
2023/07/16 08:21:31;;;;;;;6.10;3.03;;;25.50;92.80;;;;;;4977527;28;20506;-95
2023/07/16 08:24:01;;;;;;;4.77;3.30;;;25.50;92.50;;;;;;4978869;28;20454;-94
2023/07/16 08:26:28;;;;;;;4.27;3.23;;;25.50;92.60;;;;;;4978413;28;20455;-95
2023/07/16 08:28:59;;;;;;;5.23;3.23;;;25.50;92.60;;;;;;4978672;28;20448;-95
2023/07/16 08:31:29;;;;;;;5.10;3.37;;;25.40;92.60;;;;;;4978806;28;20445;-95
2023/07/16 08:33:56;;;;;;;2.87;2.67;;;25.50;92.70;;;;;;4977538;28;20442;-95
2023/07/16 08:36:29;;;;;;;4.00;3.63;;;25.50;92.80;;;;;;4978144;28;20453;-95
2023/07/16 08:38:58;;;;;;;5.17;3.43;;;25.50;92.80;;;;;;4977442;28;20464;-96
2023/07/16 08:41:28;;;;;;;4.40;2.53;;;25.50;92.80;;;;;;4976687;28;20538;-95
2023/07/16 08:43:55;;;;;;;6.23;3.00;;;25.60;92.90;;;;;;4977531;28;20944;-95
2023/07/16 08:46:25;;;;;;;3.10;2.80;;;25.60;92.90;;;;;;4979525;28;20495;-94
2023/07/16 08:48:53;;;;;;;4.00;3.60;;;25.50;92.90;;;;;;4981087;28;20456;-94
2023/07/16 08:51:29;;;;;;;5.07;3.43;;;25.50;92.90;;;;;;4980239;28;20576;-95
2023/07/16 08:54:02;;;;;;;3.80;3.03;;;25.60;93.00;;;;;;4981913;28;20421;-96
2023/07/16 08:56:29;;;;;;;3.23;2.90;;;25.60;92.90;;;;;;4983733;28;20445;-96
2023/07/16 08:58:57;;;;;;;4.97;2.83;;;25.50;92.90;;;;;;4983648;28;20453;-95
2023/07/16 09:01:24;;;;;;;4.80;3.13;;;25.50;92.80;;;;;;4985540;28;20478;-95
2023/07/16 09:03:53;;;;;;;3.60;3.30;;;25.60;93.00;;;;;;4985766;28;20982;-95
2023/07/16 09:06:26;;;;;;;3.30;3.00;;;25.60;93.00;;;;;;4985568;28;20446;-95
2023/07/16 09:08:55;;;;;;;3.83;3.37;;;25.60;93.10;;;;;;4987004;28;21010;-95
2023/07/16 09:11:23;;;;;;;6.13;3.10;;;25.60;93.10;;;;;;4984557;28;20527;-95
2023/07/16 09:13:50;;;;;;;3.47;2.80;;;25.60;93.10;;;;;;4985872;28;20504;-95
2023/07/16 09:16:20;;;;;;;2.87;2.67;;;25.60;93.00;;;;;;4988481;28;20959;-96
2023/07/16 09:18:52;;;;;;;3.40;2.77;;;25.60;93.00;;;;;;4990751;28;20425;-95
2023/07/16 09:21:26;;;;;;;2.37;2.13;;;25.60;93.00;;;;;;4989591;28;20513;-96
2023/07/16 09:23:58;;;;;;;2.90;2.70;;;25.60;93.10;;;;;;4987338;28;20941;-95
2023/07/16 09:26:26;;;;;;;3.47;2.80;;;25.60;93.00;;;;;;4989121;28;20513;-95
2023/07/16 09:29:05;;;;;;;3.87;3.03;;;25.60;93.00;;;;;;4989114;28;20452;-96
2023/07/16 09:31:34;;;;;;;3.17;2.90;;;25.60;93.10;;;;;;4989966;28;20480;-95
2023/07/16 09:34:03;;;;;;;3.67;3.27;;;25.60;93.10;;;;;;4988362;28;20504;-95
2023/07/16 09:36:30;;;;;;;3.20;2.70;;;25.60;93.20;;;;;;4988792;28;20456;-95
2023/07/16 09:39:00;;;;;;;2.30;2.10;;;25.60;93.20;;;;;;4987597;28;20534;-96
2023/07/16 09:41:31;;;;;;;7.37;2.90;;;25.60;93.10;;;;;;4990607;28;20450;-95
2023/07/16 09:43:58;;;;;;;2.83;2.63;;;25.60;93.10;;;;;;4989621;28;20449;-95
2023/07/16 09:46:25;;;;;;;5.80;3.17;;;25.60;93.20;;;;;;4989757;28;20456;-95
2023/07/16 09:48:53;;;;;;;3.80;2.73;;;25.60;93.20;;;;;;4987531;28;20462;-95
2023/07/16 09:51:22;;;;;;;4.50;2.93;;;25.60;93.60;;;;;;4986673;28;20488;-96
2023/07/16 09:53:52;;;;;;;3.20;2.90;;;25.60;93.30;;;;;;4986241;28;20480;-95
2023/07/16 09:56:22;;;;;;;3.40;2.77;;;25.60;93.30;;;;;;4985492;28;20488;-96
2023/07/16 09:58:55;;;;;;;3.90;2.80;;;25.60;93.30;;;;;;4985825;28;20442;-95
2023/07/16 10:01:23;;;;;;;2.87;1.87;;;25.60;93.30;;;;;;4986182;28;20481;-96
2023/07/16 10:03:54;;;;;;;2.93;2.23;;;25.60;93.30;;;;;;4987568;28;20446;-96
2023/07/16 10:06:23;;;;;;;3.07;2.70;;;25.60;93.40;;;;;;4985633;28;20461;-96
2023/07/16 10:08:57;;;;;;;2.53;2.33;;;25.50;93.40;;;;;;4987331;28;20453;-95
2023/07/16 10:11:30;;;;;;;2.77;2.43;;;25.60;93.40;;;;;;4987530;28;21026;-96
2023/07/16 10:13:58;;;;;;;3.10;2.50;;;25.60;93.50;;;;;;4987592;28;20454;-95
2023/07/16 10:16:27;;;;;;;3.43;2.50;;;25.70;93.50;;;;;;4968717;28;20814;-95
2023/07/16 10:18:54;;;;;;;2.57;2.37;;;25.60;93.50;;;;;;4986234;28;20474;-96
2023/07/16 10:21:38;;;;;;;2.83;2.47;;;25.60;93.40;;;;;;4989610;28;20442;-96
2023/07/16 10:24:06;;;;;;;2.77;2.50;;;25.60;93.60;;;;;;4985847;28;20453;-95
2023/07/16 10:26:40;;;;;;;2.17;1.97;;;25.60;93.50;;;;;;4984875;28;20477;-95
2023/07/16 10:29:08;;;;;;;2.70;2.30;;;25.60;93.50;;;;;;4985694;28;20795;-95
2023/07/16 10:31:36;;;;;;;3.00;2.70;;;25.60;93.60;;;;;;4984455;28;20513;-95
2023/07/16 10:34:05;;;;;;;2.50;2.30;;;25.60;93.50;;;;;;4984603;28;20452;-95
2023/07/16 10:36:38;;;;;;;2.43;2.23;;;25.60;93.40;;;;;;4982639;28;20478;-95
2023/07/16 10:39:06;;;;;;;2.50;2.30;;;25.60;93.50;;;;;;4983133;28;20450;-95
2023/07/16 10:41:35;;;;;;;2.20;2.00;;;25.60;93.50;;;;;;4984093;28;20461;-95
2023/07/16 10:44:02;;;;;;;2.70;2.40;;;25.50;93.60;;;;;;4986154;28;20453;-95
2023/07/16 10:46:29;;;;;;;2.40;2.20;;;25.60;93.50;;;;;;4984141;28;20533;-95
2023/07/16 10:48:57;;;;;;;2.83;2.50;;;25.70;93.40;;;;;;4984752;28;20456;-95
2023/07/16 10:51:27;;;;;;;2.30;2.10;;;25.70;93.60;;;;;;4984070;28;20481;-95
2023/07/16 10:53:56;;;;;;;2.33;2.00;;;25.70;93.60;;;;;;4984359;28;20425;-95
2023/07/16 10:56:24;;;;;;;2.43;2.23;;;25.80;93.60;;;;;;4984657;28;20460;-96
2023/07/16 10:58:55;;;;;;;2.73;2.53;;;25.60;93.60;;;;;;4984906;28;20457;-95
2023/07/16 11:01:22;;;;;;;2.47;1.93;;;25.60;93.60;;;;;;4983831;28;20474;-95
2023/07/16 11:03:49;;;;;;;2.80;2.07;;;25.60;93.50;;;;;;4966923;28;20468;-95
2023/07/16 11:06:22;;;;;;;5.20;3.00;;;25.70;93.50;;;;;;4985733;28;20453;-95
2023/07/16 11:08:50;;;;;;;2.50;2.30;;;25.70;93.40;;;;;;4968156;28;20505;-95
2023/07/16 11:11:17;;;;;;;2.47;2.27;;;25.60;93.40;;;;;;4983739;28;20491;-95
2023/07/16 11:13:46;;;;;;;2.50;2.30;;;25.70;93.50;;;;;;4981502;28;20540;-95
2023/07/16 11:16:17;;;;;;;1.90;1.77;;;25.70;93.70;;;;;;4983525;28;20450;-96
2023/07/16 11:18:44;;;;;;;3.20;2.90;;;25.70;93.50;;;;;;4983361;28;20456;-95
2023/07/16 11:21:11;;;;;;;5.30;2.30;;;25.60;93.40;;;;;;4983016;28;20546;-95
2023/07/16 11:23:39;;;;;;;2.80;2.60;;;25.60;93.40;;;;;;4982939;28;20523;-94
2023/07/16 11:26:06;;;;;;;2.23;2.03;;;25.60;93.40;;;;;;4982853;28;20472;-95
2023/07/16 11:28:39;;;;;;;3.43;2.40;;;25.70;93.30;;;;;;4981035;28;20858;-95
2023/07/16 11:31:15;;;;;;;2.70;2.50;;;25.60;93.20;;;;;;4981486;28;20480;-95
2023/07/16 11:33:44;;;;;;;2.20;2.00;;;25.70;93.30;;;;;;4982087;28;20509;-95
2023/07/16 11:36:12;;;;;;;2.80;2.10;;;25.60;93.30;;;;;;4981296;28;20523;-95
2023/07/16 11:38:39;;;;;;;3.27;2.70;;;25.70;93.40;;;;;;4979783;28;20460;-95
2023/07/16 11:41:07;;;;;;;2.83;2.60;;;25.60;93.30;;;;;;4980892;28;20469;-95
2023/07/16 11:43:41;;;;;;;2.20;2.10;;;25.70;93.40;;;;;;4979235;28;20454;-95
2023/07/16 11:46:18;;;;;;;4.67;2.77;;;25.60;93.30;;;;;;4979916;28;20448;-95
2023/07/16 11:48:45;;;;;;;2.67;2.47;;;25.70;93.30;;;;;;4979019;28;20446;-95
2023/07/16 11:51:12;;;;;;;3.10;2.20;;;25.70;93.40;;;;;;4977857;28;20543;-95
2023/07/16 11:53:39;;;;;;;2.27;2.10;;;25.60;93.50;;;;;;4980036;28;20937;-96
2023/07/16 11:56:07;;;;;;;2.93;1.77;;;25.60;93.50;;;;;;4980696;28;20456;-95
2023/07/16 11:58:34;;;;;;;2.10;1.90;;;25.60;93.50;;;;;;4983339;28;20456;-94
2023/07/16 12:01:02;;;;;;;2.33;2.10;;;25.70;93.50;;;;;;4982604;28;20492;-95
2023/07/16 12:03:31;;;;;;;1.90;1.80;;;25.60;93.50;;;;;;4966031;28;20449;-95
2023/07/16 12:05:58;;;;;;;2.20;2.00;;;25.60;93.40;;;;;;4982592;28;20964;-94
2023/07/16 12:08:27;;;;;;;2.30;2.10;;;25.60;93.50;;;;;;4981667;28;20446;-95
2023/07/16 12:10:55;;;;;;;2.20;2.00;;;25.70;93.40;;;;;;4981465;28;20486;-94
2023/07/16 12:13:22;;;;;;;2.37;2.17;;;25.70;93.40;;;;;;4983106;28;20497;-95
2023/07/16 12:15:49;;;;;;;2.07;1.87;;;25.60;93.40;;;;;;4979655;28;20453;-95
2023/07/16 12:18:16;;;;;;;2.00;1.80;;;25.60;93.40;;;;;;4980977;28;21000;-95
2023/07/16 12:20:44;;;;;;;1.90;1.80;;;25.60;93.50;;;;;;4984511;28;20506;-96
2023/07/16 12:23:11;;;;;;;2.53;2.33;;;25.60;93.50;;;;;;4986046;28;20473;-96
2023/07/16 12:25:43;;;;;;;2.30;2.07;;;25.60;93.50;;;;;;4985155;28;20451;-95
2023/07/16 12:28:16;;;;;;;2.30;2.03;;;25.60;93.40;;;;;;4983290;28;20521;-95
2023/07/16 12:30:43;;;;;;;2.40;2.20;;;25.70;93.60;;;;;;4983237;28;20462;-95
2023/07/16 12:33:13;;;;;;;2.73;2.30;;;25.60;93.60;;;;;;4985761;28;20449;-95
2023/07/16 12:35:40;;;;;;;2.33;1.97;;;25.60;93.40;;;;;;4983652;28;20453;-95
2023/07/16 12:38:09;;;;;;;2.43;2.23;;;25.60;93.30;;;;;;4983932;28;20458;-95
2023/07/16 12:40:41;;;;;;;2.20;2.10;;;25.60;93.30;;;;;;4983216;28;20457;-95
2023/07/16 12:43:08;;;;;;;2.37;2.20;;;25.60;93.20;;;;;;4983101;28;20447;-95
2023/07/16 12:45:36;;;;;;;1.70;1.60;;;25.60;93.20;;;;;;4983602;28;20467;-95
2023/07/16 12:48:06;;;;;;;2.13;1.93;;;25.60;93.20;;;;;;4983015;28;20458;-95
2023/07/16 12:50:33;;;;;;;1.93;1.73;;;25.70;93.20;;;;;;4982858;28;20460;-95
2023/07/16 12:53:05;;;;;;;2.20;1.97;;;25.80;93.20;;;;;;4981882;28;21039;-95
2023/07/16 12:55:35;;;;;;;2.43;2.13;;;25.60;93.10;;;;;;4982917;28;20476;-94
2023/07/16 12:58:06;;;;;;;1.63;1.53;;;25.60;93.10;;;;;;4980663;28;20834;-95
2023/07/16 13:00:33;;;;;;;2.00;1.90;;;25.60;93.10;;;;;;4983111;28;20450;-94
2023/07/16 13:03:01;;;;;;;1.70;1.60;;;25.60;93.20;;;;;;4981652;28;20473;-95
2023/07/16 13:05:28;;;;;;;2.23;1.90;;;25.60;93.20;;;;;;4982763;28;20472;-95
2023/07/16 13:07:57;;;;;;;2.63;2.43;;;25.60;93.10;;;;;;4983107;28;20447;-96
2023/07/16 13:10:27;;;;;;;1.60;1.47;;;25.60;93.10;;;;;;4983724;28;20466;-94